Time;durP1;ratioP1;P1;durP2;ratioP2;P2;SDS_P1;SDS_P2;PMS_P1;PMS_P2;Temp;Humidity;BMP_temperature;BMP_pressure;BME280_temperature;BME280_humidity;BME280_pressure;Samples;Min_cycle;Max_cycle;Signal;HPM_P1;HPM_P2
2022/07/29 00:00:44;;;;;;;1.77;0.75;;;15.50;91.30;;;;;;4974590;28;20195;-87
2022/07/29 00:03:13;;;;;;;4.03;0.93;;;15.50;91.30;;;;;;4974657;28;20536;-88
2022/07/29 00:05:40;;;;;;;2.20;0.88;;;15.50;91.50;;;;;;4974840;28;20251;-87
2022/07/29 00:10:42;;;;;;;3.47;0.70;;;15.40;91.50;;;;;;5084740;23;20253;-87
2022/07/29 00:13:08;;;;;;;1.92;0.60;;;15.40;91.90;;;;;;5015821;28;20182;-88
2022/07/29 00:15:33;;;;;;;3.63;1.10;;;15.40;92.20;;;;;;5026445;28;20197;-88
2022/07/29 00:17:59;;;;;;;4.38;2.40;;;15.40;91.90;;;;;;5016345;28;20266;-89
2022/07/29 00:20:37;;;;;;;5.65;1.50;;;15.30;91.70;;;;;;4998876;28;20179;-90
2022/07/29 00:23:03;;;;;;;1.50;0.90;;;15.30;91.50;;;;;;4998834;28;20633;-90
2022/07/29 00:25:28;;;;;;;2.33;1.70;;;15.40;91.60;;;;;;4999068;28;20194;-91
2022/07/29 00:27:54;;;;;;;2.05;0.90;;;15.40;91.40;;;;;;5010972;28;20182;-90
2022/07/29 00:30:59;;;;;;;1.90;0.80;;;15.40;91.40;;;;;;5002955;28;20179;-90
2022/07/29 00:33:24;;;;;;;3.63;1.00;;;15.40;91.30;;;;;;4998606;28;20167;-90
2022/07/29 00:35:50;;;;;;;1.08;0.73;;;15.40;91.30;;;;;;4998624;28;20277;-91
2022/07/29 00:38:18;;;;;;;3.67;0.95;;;15.40;92.00;;;;;;5011618;28;20202;-89
2022/07/29 00:40:46;;;;;;;0.82;0.80;;;15.40;92.20;;;;;;5014421;28;20182;-88
2022/07/29 00:43:13;;;;;;;3.90;0.90;;;15.30;92.30;;;;;;5017751;28;20182;-91
2022/07/29 00:45:39;;;;;;;1.15;0.77;;;15.20;92.10;;;;;;5016505;28;20171;-92
2022/07/29 00:48:06;;;;;;;1.35;0.82;;;15.20;92.30;;;;;;4997617;28;20190;-91
2022/07/29 00:50:38;;;;;;;2.50;1.00;;;15.20;92.10;;;;;;4998426;28;20215;-90
2022/07/29 00:53:06;;;;;;;5.03;1.35;;;15.20;91.90;;;;;;4998660;28;20206;-90
2022/07/29 00:55:32;;;;;;;4.03;1.77;;;15.10;91.80;;;;;;4998387;28;20183;-90
2022/07/29 00:57:58;;;;;;;1.92;1.20;;;15.10;91.90;;;;;;5001997;28;20171;-90
2022/07/29 01:00:26;;;;;;;3.63;0.93;;;15.10;91.90;;;;;;5001847;28;20190;-90
2022/07/29 01:02:52;;;;;;;1.75;0.90;;;15.20;92.10;;;;;;4998099;28;20215;-90
2022/07/29 01:05:20;;;;;;;3.83;0.90;;;15.20;92.00;;;;;;5005119;28;20183;-90
2022/07/29 01:07:49;;;;;;;2.13;0.80;;;15.20;91.90;;;;;;5014344;28;20179;-93
2022/07/29 01:10:18;;;;;;;3.25;1.05;;;15.20;92.10;;;;;;5014448;28;20231;-95
2022/07/29 01:12:46;;;;;;;2.17;0.95;;;15.10;92.10;;;;;;5014545;28;20191;-91
2022/07/29 01:15:12;;;;;;;1.45;0.85;;;15.10;92.30;;;;;;5014195;28;20214;-92
2022/07/29 01:18:02;;;;;;;1.10;0.90;;;15.10;92.30;;;;;;5006062;28;20195;-91
2022/07/29 01:21:06;;;;;;;3.83;0.80;;;15.10;92.30;;;;;;4998143;28;20203;-91
2022/07/29 01:24:09;;;;;;;1.13;0.90;;;15.10;92.20;;;;;;4998056;28;20175;-91
2022/07/29 01:26:59;;;;;;;2.65;1.10;;;15.10;92.30;;;;;;4995972;28;20174;-91
2022/07/29 01:30:01;;;;;;;2.50;0.70;;;15.10;92.50;;;;;;4988475;28;20610;-92
2022/07/29 01:32:37;;;;;;;2.47;1.05;;;15.10;92.60;;;;;;4993764;28;20270;-92
2022/07/29 01:35:09;;;;;;;1.35;0.95;;;15.10;92.90;;;;;;5014883;28;20186;-91
2022/07/29 01:37:51;;;;;;;1.73;0.68;;;15.10;93.00;;;;;;5014115;28;20229;-92
2022/07/29 01:40:28;;;;;;;2.35;1.08;;;15.00;92.80;;;;;;4992237;28;20190;-92
2022/07/29 01:42:56;;;;;;;1.52;0.75;;;15.00;92.80;;;;;;4995555;28;20227;-92
2022/07/29 01:45:40;;;;;;;2.05;0.88;;;15.00;93.00;;;;;;5027260;28;20182;-92
2022/07/29 01:48:17;;;;;;;3.22;0.93;;;15.10;93.00;;;;;;5015225;28;20180;-91
2022/07/29 01:51:02;;;;;;;3.42;1.35;;;15.10;93.20;;;;;;5004785;28;20183;-91
2022/07/29 01:53:45;;;;;;;2.88;1.25;;;15.10;93.20;;;;;;4997820;28;20167;-91
2022/07/29 01:56:13;;;;;;;1.30;0.82;;;15.10;93.20;;;;;;4997634;28;20171;-92
2022/07/29 01:58:41;;;;;;;3.78;1.20;;;15.00;93.10;;;;;;5004587;28;20186;-92
2022/07/29 02:01:13;;;;;;;5.53;1.08;;;15.00;93.00;;;;;;5010568;28;20207;-91
2022/07/29 02:03:42;;;;;;;3.65;0.98;;;15.00;92.90;;;;;;5016176;28;20183;-91
2022/07/29 02:06:09;;;;;;;2.80;1.17;;;14.90;93.10;;;;;;5010552;28;20182;-91
2022/07/29 02:08:36;;;;;;;2.90;1.20;;;15.00;93.10;;;;;;5012115;28;20179;-91
2022/07/29 02:11:04;;;;;;;2.03;1.08;;;15.00;93.00;;;;;;5016982;28;20238;-91
2022/07/29 02:13:31;;;;;;;4.07;1.00;;;15.00;93.00;;;;;;5020837;28;20175;-91
2022/07/29 02:15:59;;;;;;;1.10;0.80;;;15.00;93.10;;;;;;5009131;28;20218;-92
2022/07/29 02:18:27;;;;;;;3.40;0.82;;;15.00;93.10;;;;;;5011845;28;20183;-91
2022/07/29 02:20:55;;;;;;;8.98;1.15;;;15.00;93.00;;;;;;5011806;28;20620;-91
2022/07/29 02:23:24;;;;;;;5.20;1.70;;;15.00;93.00;;;;;;5010294;28;20191;-90
2022/07/29 02:25:54;;;;;;;3.40;1.25;;;15.00;93.20;;;;;;5024352;28;20167;-89
2022/07/29 02:28:24;;;;;;;2.90;0.98;;;15.00;93.30;;;;;;5019373;28;20281;-91
2022/07/29 02:30:52;;;;;;;1.63;0.90;;;14.90;93.20;;;;;;5022385;28;20601;-91
2022/07/29 02:33:23;;;;;;;5.82;1.40;;;15.00;93.40;;;;;;5008800;28;20191;-91
2022/07/29 02:35:50;;;;;;;1.35;1.00;;;14.90;93.40;;;;;;5008717;28;20179;-92
2022/07/29 02:41:15;;;;;;;4.30;1.20;;;15.00;93.50;;;;;;5020906;28;20240;-91
2022/07/29 02:43:46;;;;;;;1.52;1.00;;;15.00;93.50;;;;;;5008699;28;20187;-90
2022/07/29 02:46:17;;;;;;;2.10;0.88;;;15.00;93.40;;;;;;5033702;28;20174;-89
2022/07/29 02:48:51;;;;;;;4.40;1.30;;;15.00;93.40;;;;;;5009162;28;20210;-91
2022/07/29 02:51:31;;;;;;;2.40;1.10;;;14.90;93.50;;;;;;5000398;28;20249;-92
2022/07/29 02:54:01;;;;;;;4.13;1.48;;;14.90;93.60;;;;;;5000530;28;20262;-90
2022/07/29 02:56:34;;;;;;;2.22;1.05;;;14.90;93.80;;;;;;5000301;28;20545;-92
2022/07/29 02:59:04;;;;;;;2.03;0.90;;;14.90;94.10;;;;;;5017708;28;20238;-92
2022/07/29 03:01:32;;;;;;;1.90;1.10;;;14.80;94.10;;;;;;5016385;28;20211;-91
2022/07/29 03:04:05;;;;;;;6.03;1.30;;;14.90;94.20;;;;;;5005647;28;20237;-91
2022/07/29 03:06:34;;;;;;;2.05;1.08;;;14.90;94.20;;;;;;5000465;28;20167;-92
2022/07/29 03:09:00;;;;;;;2.92;1.20;;;14.80;94.20;;;;;;4999823;28;20183;-91
2022/07/29 03:11:26;;;;;;;2.72;1.30;;;14.80;94.40;;;;;;4999847;28;20535;-91
2022/07/29 03:13:54;;;;;;;4.15;1.10;;;14.80;94.30;;;;;;4999520;28;20194;-93
2022/07/29 03:16:20;;;;;;;1.60;1.05;;;14.80;94.40;;;;;;4989050;28;20176;-91
2022/07/29 03:18:47;;;;;;;4.22;1.20;;;14.80;94.50;;;;;;5016791;28;20175;-93
2022/07/29 03:21:12;;;;;;;2.33;1.08;;;14.80;94.30;;;;;;5016536;28;20203;-88
2022/07/29 03:23:44;;;;;;;3.85;1.08;;;14.80;94.40;;;;;;5016143;28;20266;-91
2022/07/29 03:26:10;;;;;;;2.78;0.98;;;14.80;94.20;;;;;;5016081;28;20195;-91
2022/07/29 03:28:36;;;;;;;3.60;1.40;;;14.90;94.30;;;;;;5016150;28;20625;-93
2022/07/29 03:31:02;;;;;;;1.58;1.10;;;14.90;94.20;;;;;;5016059;28;20179;-92
2022/07/29 03:33:28;;;;;;;1.83;0.98;;;14.80;94.20;;;;;;5016129;28;20606;-90
2022/07/29 03:35:54;;;;;;;3.90;1.38;;;14.80;94.30;;;;;;5016027;28;20171;-91
2022/07/29 03:38:23;;;;;;;4.97;1.48;;;14.80;94.20;;;;;;5015679;28;20187;-91
2022/07/29 03:40:54;;;;;;;2.10;1.30;;;14.80;94.30;;;;;;5002431;28;20186;-89
2022/07/29 03:43:24;;;;;;;3.90;1.60;;;14.70;94.50;;;;;;5000641;28;20183;-91
2022/07/29 03:45:53;;;;;;;5.35;1.30;;;14.50;94.70;;;;;;4985925;28;20310;-91
2022/07/29 03:48:24;;;;;;;4.88;1.25;;;14.60;94.60;;;;;;4995305;28;20209;-91
2022/07/29 03:50:50;;;;;;;5.13;1.52;;;14.60;94.90;;;;;;4999285;28;20225;-90
2022/07/29 03:53:18;;;;;;;4.90;1.50;;;14.60;94.90;;;;;;4999286;28;20236;-91
2022/07/29 03:55:52;;;;;;;0.98;0.82;;;14.60;94.90;;;;;;4999331;28;20206;-92
2022/07/29 03:58:19;;;;;;;2.75;1.20;;;14.50;95.20;;;;;;4999090;28;20568;-91
2022/07/29 04:00:45;;;;;;;2.10;1.25;;;14.40;95.30;;;;;;5017193;28;20256;-90
2022/07/29 04:03:12;;;;;;;2.70;1.38;;;14.40;95.40;;;;;;4999226;28;20266;-93
2022/07/29 04:05:38;;;;;;;1.90;1.17;;;14.50;95.60;;;;;;4998982;28;20221;-92
2022/07/29 04:08:04;;;;;;;3.38;1.45;;;14.50;95.70;;;;;;4999343;28;20243;-92
2022/07/29 04:10:30;;;;;;;2.92;1.30;;;14.50;95.50;;;;;;5016531;28;20250;-90
2022/07/29 04:12:59;;;;;;;3.33;1.70;;;14.50;95.60;;;;;;4996422;28;20606;-91
2022/07/29 04:15:25;;;;;;;4.43;1.40;;;14.60;95.70;;;;;;4998625;28;20194;-90
2022/07/29 04:17:51;;;;;;;6.53;1.40;;;14.60;95.60;;;;;;5014951;28;20183;-91
2022/07/29 04:20:17;;;;;;;4.43;1.45;;;14.50;96.10;;;;;;5015207;28;20863;-91
2022/07/29 04:22:43;;;;;;;1.95;1.38;;;14.60;96.20;;;;;;5015189;28;20217;-95
2022/07/29 04:25:10;;;;;;;6.53;1.50;;;14.60;96.40;;;;;;5015597;28;20224;-91
2022/07/29 04:27:59;;;;;;;2.65;1.20;;;14.60;96.40;;;;;;5015239;28;20209;-91
2022/07/29 04:30:22;;;;;;;2.58;1.35;;;14.70;96.50;;;;;;5016306;28;20171;-90
2022/07/29 04:32:47;;;;;;;3.00;1.52;;;14.70;96.60;;;;;;5014965;28;20517;-91
2022/07/29 04:35:20;;;;;;;2.30;1.42;;;14.70;97.00;;;;;;5014974;28;20206;-90
2022/07/29 04:37:45;;;;;;;3.70;1.35;;;14.70;96.90;;;;;;4979256;28;20180;-91
2022/07/29 04:40:11;;;;;;;2.53;1.33;;;14.70;97.10;;;;;;4990414;28;20190;-91
2022/07/29 04:42:38;;;;;;;3.20;1.50;;;14.70;96.90;;;;;;4998507;28;20246;-90
2022/07/29 04:45:09;;;;;;;4.88;2.03;;;14.70;97.20;;;;;;5015778;28;20187;-91
2022/07/29 04:47:35;;;;;;;4.43;1.40;;;14.70;97.30;;;;;;4998174;28;20490;-91
2022/07/29 04:50:01;;;;;;;3.33;1.60;;;14.70;97.10;;;;;;4998658;28;20182;-91
2022/07/29 04:52:26;;;;;;;3.10;1.60;;;14.70;97.30;;;;;;4998228;28;20622;-90
2022/07/29 04:54:54;;;;;;;2.97;1.55;;;14.70;97.10;;;;;;4998610;28;20515;-91
2022/07/29 04:57:20;;;;;;;2.95;1.80;;;14.80;97.20;;;;;;5006053;28;20247;-90
2022/07/29 04:59:45;;;;;;;5.70;1.83;;;14.80;97.30;;;;;;5018323;28;20578;-90
2022/07/29 05:02:11;;;;;;;4.40;1.95;;;14.90;97.60;;;;;;4997848;28;20680;-90
2022/07/29 05:04:36;;;;;;;2.95;1.83;;;14.90;97.60;;;;;;4998256;28;20253;-91
2022/07/29 05:07:02;;;;;;;2.90;1.70;;;15.00;97.70;;;;;;4997814;28;20225;-91
2022/07/29 05:09:28;;;;;;;4.40;1.73;;;15.00;97.70;;;;;;4997145;28;20238;-90
2022/07/29 05:11:53;;;;;;;3.70;1.42;;;15.00;97.70;;;;;;4996797;28;20622;-91
2022/07/29 05:14:20;;;;;;;2.85;1.60;;;15.00;97.40;;;;;;4996790;28;20175;-90
2022/07/29 05:16:46;;;;;;;3.63;2.13;;;15.10;97.60;;;;;;4995861;28;20187;-92
2022/07/29 05:19:11;;;;;;;3.35;1.60;;;15.20;97.50;;;;;;5014609;28;20172;-91
2022/07/29 05:21:37;;;;;;;2.72;1.85;;;15.20;97.70;;;;;;5014502;28;20697;-92
2022/07/29 05:24:03;;;;;;;3.58;1.70;;;15.30;97.90;;;;;;5014862;28;20207;-90
2022/07/29 05:26:28;;;;;;;3.40;1.75;;;15.30;97.70;;;;;;4997004;28;20179;-91
2022/07/29 05:28:54;;;;;;;5.65;2.20;;;15.40;97.50;;;;;;4998428;28;20187;-90
2022/07/29 05:31:20;;;;;;;5.57;1.90;;;15.40;97.20;;;;;;5011517;28;20179;-91
2022/07/29 05:33:46;;;;;;;5.53;2.00;;;15.40;97.50;;;;;;4996994;28;20179;-89
2022/07/29 05:36:12;;;;;;;4.72;2.17;;;15.40;97.50;;;;;;4998716;28;20634;-90
2022/07/29 05:38:38;;;;;;;2.70;1.80;;;15.40;97.70;;;;;;4997512;28;20210;-92
2022/07/29 05:41:04;;;;;;;8.30;2.08;;;15.40;97.70;;;;;;4985764;28;20218;-91
2022/07/29 05:43:30;;;;;;;2.65;1.70;;;15.40;97.80;;;;;;5000422;28;20649;-91
2022/07/29 05:46:03;;;;;;;5.63;1.92;;;15.40;97.70;;;;;;5000727;28;20211;-91
2022/07/29 05:48:28;;;;;;;4.13;1.98;;;15.50;97.90;;;;;;5000279;28;20291;-90
2022/07/29 05:50:54;;;;;;;2.97;1.67;;;15.50;97.90;;;;;;5000320;28;20653;-91
2022/07/29 05:53:20;;;;;;;4.50;2.17;;;15.50;98.30;;;;;;5000382;28;20179;-90
2022/07/29 05:55:49;;;;;;;3.75;1.70;;;15.50;98.10;;;;;;4991151;28;20180;-94
2022/07/29 05:58:15;;;;;;;5.97;1.85;;;15.70;97.90;;;;;;4980686;28;20176;-91
2022/07/29 06:00:41;;;;;;;3.60;1.92;;;15.70;97.80;;;;;;5002339;28;20672;-91
2022/07/29 06:03:07;;;;;;;3.97;2.10;;;15.70;98.20;;;;;;5017362;28;20207;-90
2022/07/29 06:05:34;;;;;;;3.22;1.77;;;15.70;98.10;;;;;;5000662;28;20218;-89
2022/07/29 06:07:59;;;;;;;4.07;2.17;;;15.80;97.70;;;;;;4995249;28;20169;-91
2022/07/29 06:10:25;;;;;;;4.68;2.42;;;15.90;97.80;;;;;;4942670;28;1124850;-92
2022/07/29 06:12:50;;;;;;;3.08;1.60;;;16.00;97.80;;;;;;5013861;28;20187;-92
2022/07/29 06:15:18;;;;;;;4.03;1.77;;;16.00;97.20;;;;;;5001415;28;20187;-95
2022/07/29 06:17:44;;;;;;;3.72;1.85;;;16.10;97.40;;;;;;4994260;28;20207;-93
2022/07/29 06:20:10;;;;;;;5.53;2.15;;;16.10;97.20;;;;;;4989817;28;20606;-95
2022/07/29 06:22:35;;;;;;;5.50;2.05;;;16.20;97.00;;;;;;5001638;28;20218;-94
2022/07/29 06:25:04;;;;;;;4.85;2.30;;;16.20;97.00;;;;;;5005980;28;20170;-91
2022/07/29 06:27:29;;;;;;;4.63;2.25;;;16.30;97.20;;;;;;4983831;28;20187;-87
2022/07/29 06:29:56;;;;;;;6.85;2.47;;;16.40;96.80;;;;;;4998616;28;20186;-94
2022/07/29 06:32:22;;;;;;;2.75;1.75;;;16.50;97.00;;;;;;5020376;28;20183;-92
2022/07/29 06:34:53;;;;;;;5.78;2.28;;;16.50;96.80;;;;;;4982236;28;20186;-95
2022/07/29 06:37:19;;;;;;;6.78;2.60;;;16.70;96.70;;;;;;5009644;28;20171;-94
2022/07/29 06:39:44;;;;;;;4.45;1.80;;;16.80;96.90;;;;;;4995683;28;20195;-92
2022/07/29 06:42:10;;;;;;;3.10;2.08;;;16.90;97.00;;;;;;4999814;28;20207;-94
2022/07/29 06:44:35;;;;;;;2.95;1.83;;;17.00;96.70;;;;;;4999221;28;20203;-92
2022/07/29 06:47:02;;;;;;;5.68;2.03;;;17.10;96.40;;;;;;5003010;28;20931;-92
2022/07/29 06:49:28;;;;;;;5.38;1.80;;;17.30;96.10;;;;;;5005084;28;20214;-94
2022/07/29 06:51:54;;;;;;;4.90;1.92;;;17.40;96.10;;;;;;5013775;28;20199;-95
2022/07/29 06:54:20;;;;;;;5.97;2.15;;;17.50;95.50;;;;;;5010536;28;20187;-92
2022/07/29 06:56:48;;;;;;;6.57;2.33;;;17.50;94.90;;;;;;5016803;28;20280;-93
2022/07/29 06:59:14;;;;;;;5.10;1.83;;;17.60;95.10;;;;;;5007750;28;20205;-89
2022/07/29 07:01:42;;;;;;;7.10;2.15;;;17.80;95.10;;;;;;5003456;28;20215;-93
2022/07/29 07:04:09;;;;;;;4.70;2.33;;;17.90;95.10;;;;;;4997331;28;20187;-89
2022/07/29 07:06:35;;;;;;;3.67;2.13;;;18.10;95.50;;;;;;5001108;28;20175;-88
2022/07/29 07:09:01;;;;;;;7.07;1.98;;;18.20;94.40;;;;;;5000226;28;20226;-89
2022/07/29 07:11:27;;;;;;;5.72;2.13;;;18.30;94.30;;;;;;5017085;28;20677;-90
2022/07/29 07:13:53;;;;;;;4.10;1.70;;;18.30;94.20;;;;;;5000267;28;20322;-90
2022/07/29 07:16:28;;;;;;;3.00;1.85;;;18.30;94.00;;;;;;5000463;28;20186;-95
2022/07/29 07:18:53;;;;;;;5.25;2.10;;;18.30;94.20;;;;;;5000390;28;20167;-89
2022/07/29 07:21:19;;;;;;;2.95;2.00;;;18.40;94.20;;;;;;4999958;28;20611;-92
2022/07/29 07:23:45;;;;;;;4.15;2.00;;;18.40;94.30;;;;;;5000330;28;20196;-91
2022/07/29 07:26:13;;;;;;;6.65;1.90;;;18.60;94.30;;;;;;4999802;28;20179;-93
2022/07/29 07:28:38;;;;;;;2.92;1.90;;;18.70;93.40;;;;;;5000215;28;20179;-91
2022/07/29 07:31:05;;;;;;;4.88;2.33;;;18.70;93.50;;;;;;5000746;28;20175;-95
2022/07/29 07:33:31;;;;;;;3.83;1.90;;;18.80;93.00;;;;;;4983687;28;20230;-93
2022/07/29 07:35:58;;;;;;;3.40;2.00;;;18.90;93.60;;;;;;4981508;28;20208;-95
2022/07/29 07:38:24;;;;;;;3.25;2.00;;;19.00;93.10;;;;;;5014158;28;20273;-91
2022/07/29 07:40:50;;;;;;;3.17;1.85;;;19.20;93.30;;;;;;5003067;28;20270;-88
2022/07/29 07:43:15;;;;;;;4.40;1.83;;;19.40;92.60;;;;;;5000055;28;20210;-89
2022/07/29 07:45:53;;;;;;;1.95;1.60;;;19.40;92.40;;;;;;5000088;28;20186;-86
2022/07/29 07:48:19;;;;;;;3.67;1.63;;;19.50;92.10;;;;;;5006218;28;20178;-90
2022/07/29 07:50:44;;;;;;;4.10;1.73;;;19.40;92.00;;;;;;5003801;28;20187;-90
2022/07/29 07:53:10;;;;;;;6.70;1.80;;;19.30;92.30;;;;;;4999912;28;20518;-88
2022/07/29 07:56:06;;;;;;;3.92;2.15;;;19.40;91.90;;;;;;5001160;28;20232;-96
2022/07/29 07:58:31;;;;;;;3.22;1.95;;;19.70;91.80;;;;;;4999364;28;20591;-89
2022/07/29 08:00:57;;;;;;;5.43;1.88;;;19.80;91.50;;;;;;4999709;28;20187;-94
2022/07/29 08:03:23;;;;;;;3.63;2.00;;;20.20;91.30;;;;;;4999587;28;20253;-91
2022/07/29 08:05:51;;;;;;;4.10;1.75;;;20.40;91.30;;;;;;4999461;28;20179;-94
2022/07/29 08:08:17;;;;;;;2.83;1.60;;;20.40;91.10;;;;;;4999298;28;20269;-88
2022/07/29 08:10:51;;;;;;;6.10;2.20;;;20.20;90.90;;;;;;4998926;28;20796;-90
2022/07/29 08:13:18;;;;;;;6.47;1.77;;;20.20;91.40;;;;;;4999228;28;20190;-89
2022/07/29 08:15:47;;;;;;;4.13;1.88;;;20.20;91.70;;;;;;4998946;28;20254;-93
2022/07/29 08:18:13;;;;;;;4.05;1.70;;;20.20;91.50;;;;;;5016924;28;20167;-94
2022/07/29 08:20:39;;;;;;;2.85;1.90;;;20.20;91.90;;;;;;5016829;28;20187;-91
2022/07/29 08:23:08;;;;;;;4.53;2.25;;;20.20;91.30;;;;;;5016205;28;20219;-88
2022/07/29 08:25:37;;;;;;;4.13;1.95;;;20.10;91.50;;;;;;4998807;28;20186;-91
2022/07/29 08:28:03;;;;;;;4.55;2.15;;;20.10;91.60;;;;;;4998760;28;20618;-88
2022/07/29 08:30:29;;;;;;;5.43;1.98;;;20.10;92.00;;;;;;5016728;28;20218;-93
2022/07/29 08:32:54;;;;;;;3.05;1.80;;;20.10;91.80;;;;;;4998540;28;20550;-90
2022/07/29 08:35:21;;;;;;;4.40;1.92;;;20.00;92.30;;;;;;4999115;28;20727;-91
2022/07/29 08:37:50;;;;;;;6.32;2.17;;;20.00;92.00;;;;;;5011196;28;20625;-92
2022/07/29 08:40:16;;;;;;;3.60;2.28;;;20.00;91.90;;;;;;5006294;28;20193;-88
2022/07/29 08:42:42;;;;;;;6.03;2.13;;;20.00;92.10;;;;;;4998912;28;20290;-88
2022/07/29 08:45:08;;;;;;;2.47;1.73;;;20.00;91.60;;;;;;4998836;28;20175;-93
2022/07/29 08:47:53;;;;;;;6.57;2.22;;;20.10;91.70;;;;;;4998224;28;20183;-92
2022/07/29 08:50:18;;;;;;;4.43;1.98;;;20.20;91.80;;;;;;4998569;28;20178;-91
2022/07/29 08:52:45;;;;;;;2.88;2.13;;;20.30;92.20;;;;;;4998572;28;20278;-90
2022/07/29 08:55:11;;;;;;;4.30;1.70;;;20.40;91.50;;;;;;4998371;28;20202;-90
2022/07/29 08:57:38;;;;;;;4.57;2.13;;;20.60;91.70;;;;;;4998330;28;20622;-91
2022/07/29 09:00:08;;;;;;;4.07;2.00;;;20.70;91.60;;;;;;4998408;28;20241;-88
2022/07/29 09:02:39;;;;;;;3.85;1.83;;;20.70;91.90;;;;;;5014684;28;20214;-89
2022/07/29 09:05:06;;;;;;;4.30;1.90;;;20.80;91.20;;;;;;4997601;28;20183;-87
2022/07/29 09:07:48;;;;;;;4.50;2.15;;;20.90;91.60;;;;;;5004083;28;20269;-91
2022/07/29 09:10:14;;;;;;;3.83;1.58;;;20.90;90.80;;;;;;5006202;28;20226;-96
2022/07/29 09:12:40;;;;;;;7.40;2.00;;;21.00;91.30;;;;;;5000304;28;20538;-94
2022/07/29 09:15:06;;;;;;;3.50;2.03;;;21.20;91.10;;;;;;4998967;28;20188;-90
2022/07/29 09:17:49;;;;;;;6.63;2.05;;;21.30;90.40;;;;;;4998965;28;20269;-89
2022/07/29 09:20:20;;;;;;;4.13;1.90;;;21.40;90.20;;;;;;4998254;28;20172;-95
2022/07/29 09:22:48;;;;;;;5.68;1.73;;;21.40;90.50;;;;;;4998453;28;20289;-94
2022/07/29 09:25:31;;;;;;;2.85;1.60;;;21.60;90.90;;;;;;4997760;28;20182;-90
2022/07/29 09:28:09;;;;;;;2.00;1.42;;;21.90;90.30;;;;;;4987238;28;20190;-92
2022/07/29 09:30:38;;;;;;;2.25;1.60;;;22.20;90.00;;;;;;4978452;28;20254;-92
2022/07/29 09:33:05;;;;;;;2.90;1.55;;;22.40;89.50;;;;;;4978314;28;20184;-93
2022/07/29 09:35:31;;;;;;;6.32;1.95;;;22.40;90.00;;;;;;4978527;28;20203;-93
2022/07/29 09:38:15;;;;;;;4.93;1.98;;;22.40;89.40;;;;;;4996178;28;20579;-92
2022/07/29 09:40:40;;;;;;;4.93;1.67;;;22.40;88.30;;;;;;4978542;28;20266;-90
2022/07/29 09:43:13;;;;;;;4.32;1.77;;;22.50;86.80;;;;;;4978467;28;20238;-88
2022/07/29 09:45:39;;;;;;;3.60;1.92;;;22.60;89.00;;;;;;4978467;28;20266;-94
2022/07/29 09:48:26;;;;;;;5.68;1.98;;;22.60;88.80;;;;;;4977978;28;20227;-96
2022/07/29 09:50:53;;;;;;;25.30;2.60;;;22.60;87.40;;;;;;4978667;28;20509;-92
2022/07/29 09:53:39;;;;;;;3.97;1.80;;;22.50;86.50;;;;;;4978557;28;20267;-95
2022/07/29 09:56:05;;;;;;;3.47;1.83;;;22.50;88.30;;;;;;4988748;28;20198;-90
2022/07/29 09:58:33;;;;;;;5.53;2.13;;;22.40;87.70;;;;;;5010419;28;20254;-88
2022/07/29 10:00:59;;;;;;;2.67;1.70;;;22.50;87.60;;;;;;5014382;28;20610;-91
2022/07/29 10:03:25;;;;;;;2.92;1.77;;;22.40;87.00;;;;;;5013580;28;20215;-88
2022/07/29 10:06:10;;;;;;;5.88;1.67;;;22.50;88.90;;;;;;5013962;28;20179;-92
2022/07/29 10:08:41;;;;;;;4.20;1.88;;;22.80;87.60;;;;;;5014084;28;20273;-91
2022/07/29 10:11:13;;;;;;;3.20;1.70;;;23.10;86.90;;;;;;4998435;28;20245;-94
2022/07/29 10:13:40;;;;;;;5.13;2.28;;;23.40;86.20;;;;;;5000165;28;20531;-95
2022/07/29 10:16:06;;;;;;;4.70;1.90;;;23.80;85.10;;;;;;5000479;28;20286;-91
2022/07/29 10:18:34;;;;;;;4.43;1.90;;;23.70;85.40;;;;;;4997915;28;20175;-91
2022/07/29 10:21:00;;;;;;;3.05;1.83;;;23.90;84.20;;;;;;4998087;28;20178;-92
2022/07/29 10:23:29;;;;;;;4.53;1.63;;;24.20;82.70;;;;;;5008509;28;20201;-91
2022/07/29 10:25:54;;;;;;;5.28;1.80;;;24.20;83.40;;;;;;5001915;28;20171;-93
2022/07/29 10:28:32;;;;;;;3.55;1.77;;;24.40;82.20;;;;;;5002383;28;20210;-95
2022/07/29 10:31:03;;;;;;;5.78;1.70;;;24.70;80.60;;;;;;5003234;28;20175;-93
2022/07/29 10:33:48;;;;;;;6.00;1.60;;;24.70;81.90;;;;;;5001500;28;20174;-96
2022/07/29 10:36:32;;;;;;;5.05;1.80;;;24.80;80.30;;;;;;5001173;28;20179;-93
2022/07/29 10:39:34;;;;;;;5.57;1.88;;;24.80;80.00;;;;;;4982145;28;20172;-92
2022/07/29 10:42:17;;;;;;;3.53;1.58;;;24.90;81.10;;;;;;4970084;28;20223;-94
2022/07/29 10:44:46;;;;;;;3.95;1.75;;;25.20;82.70;;;;;;5001260;28;20841;-93
2022/07/29 10:47:24;;;;;;;8.05;2.08;;;25.40;80.40;;;;;;5003604;28;20221;-92
2022/07/29 10:50:01;;;;;;;2.08;1.38;;;25.60;81.70;;;;;;5023755;28;20175;-92
2022/07/29 10:52:58;;;;;;;6.10;1.90;;;25.70;80.50;;;;;;5001347;28;20175;-93
2022/07/29 10:55:48;;;;;;;2.53;1.48;;;25.80;78.30;;;;;;4986358;28;20571;-91
2022/07/29 10:58:25;;;;;;;5.30;1.70;;;25.70;78.70;;;;;;5001048;28;20205;-90
2022/07/29 11:00:53;;;;;;;4.70;1.50;;;25.50;79.90;;;;;;5000774;28;20262;-94
2022/07/29 11:03:49;;;;;;;6.03;1.70;;;25.40;78.90;;;;;;5000560;28;20210;-93
2022/07/29 11:06:15;;;;;;;6.35;2.03;;;25.20;81.10;;;;;;4985278;28;20268;-91
2022/07/29 11:08:43;;;;;;;7.28;1.58;;;25.00;79.10;;;;;;5000312;28;20191;-93
2022/07/29 11:11:27;;;;;;;3.35;1.40;;;24.90;78.70;;;;;;5000547;28;20235;-93
2022/07/29 11:13:54;;;;;;;2.55;1.50;;;24.80;80.90;;;;;;5018761;28;20186;-92
2022/07/29 11:16:22;;;;;;;4.47;1.67;;;24.80;79.00;;;;;;5037655;28;20201;-92
2022/07/29 11:19:22;;;;;;;2.95;1.40;;;24.70;78.80;;;;;;5019704;28;20628;-91
2022/07/29 11:21:52;;;;;;;2.92;1.70;;;24.80;79.40;;;;;;5019713;28;20206;-94
2022/07/29 11:24:30;;;;;;;2.65;1.77;;;24.80;80.40;;;;;;5005010;28;20577;-91
2022/07/29 11:27:22;;;;;;;6.88;1.58;;;24.90;79.60;;;;;;4999925;28;20298;-92
2022/07/29 11:30:03;;;;;;;3.13;1.70;;;25.00;79.20;;;;;;5000024;28;20175;-89
2022/07/29 11:32:42;;;;;;;2.20;1.63;;;25.00;78.00;;;;;;5003924;28;20174;-91
2022/07/29 11:35:28;;;;;;;2.65;1.63;;;25.10;79.70;;;;;;5036877;28;20163;-95
2022/07/29 11:38:24;;;;;;;1.88;1.20;;;25.20;79.10;;;;;;5019172;28;20229;-91
2022/07/29 11:41:25;;;;;;;2.95;1.30;;;25.20;78.40;;;;;;5019105;28;20171;-92
2022/07/29 11:43:58;;;;;;;3.13;1.50;;;25.30;77.10;;;;;;5015757;28;20625;-91
2022/07/29 11:46:50;;;;;;;7.35;1.70;;;25.30;77.70;;;;;;5015898;28;20175;-93
2022/07/29 11:49:25;;;;;;;4.18;1.67;;;25.40;74.40;;;;;;5017090;28;20203;-87
2022/07/29 11:51:52;;;;;;;2.97;1.50;;;25.40;76.80;;;;;;5016102;28;20187;-94
2022/07/29 11:54:25;;;;;;;4.53;1.50;;;25.50;73.20;;;;;;5001805;28;20187;-92
2022/07/29 11:56:52;;;;;;;3.40;1.70;;;25.50;73.60;;;;;;4979963;28;20176;-93
2022/07/29 11:59:21;;;;;;;5.35;2.20;;;25.50;74.40;;;;;;4980484;28;20215;-93
2022/07/29 12:02:00;;;;;;;3.17;1.90;;;25.60;74.30;;;;;;4980356;28;20279;-92
2022/07/29 12:04:28;;;;;;;3.17;2.00;;;25.60;73.00;;;;;;4979771;28;20639;-92
2022/07/29 12:06:54;;;;;;;4.57;2.08;;;25.60;72.70;;;;;;4984972;28;20187;-92
2022/07/29 12:09:21;;;;;;;3.05;1.77;;;25.60;73.60;;;;;;4996396;28;20241;-92
2022/07/29 12:11:47;;;;;;;4.63;1.65;;;25.60;73.20;;;;;;4999269;28;20187;-90
2022/07/29 12:14:29;;;;;;;4.00;1.60;;;25.70;73.50;;;;;;4999053;28;20506;-91
2022/07/29 12:16:56;;;;;;;3.22;1.65;;;25.70;72.90;;;;;;4999218;28;20273;-92
2022/07/29 12:19:28;;;;;;;2.88;1.50;;;25.70;73.00;;;;;;4999018;28;20203;-93
2022/07/29 12:21:55;;;;;;;5.60;1.55;;;25.70;73.20;;;;;;5002545;28;20230;-88
2022/07/29 12:24:22;;;;;;;4.45;1.88;;;25.60;72.30;;;;;;5001818;28;20172;-95
2022/07/29 12:26:59;;;;;;;6.13;1.70;;;25.60;73.20;;;;;;4998918;28;20321;-93
2022/07/29 12:29:28;;;;;;;2.65;1.70;;;25.60;73.90;;;;;;4999157;28;20210;-93
2022/07/29 12:31:54;;;;;;;3.15;1.50;;;25.60;73.40;;;;;;5016244;28;20183;-91
2022/07/29 12:34:22;;;;;;;4.55;1.52;;;25.60;74.10;;;;;;5008160;28;20222;-92
2022/07/29 12:36:49;;;;;;;5.95;1.85;;;25.60;73.30;;;;;;5036120;28;20183;-94
2022/07/29 12:39:19;;;;;;;2.67;1.42;;;25.50;73.80;;;;;;5014799;28;20187;-90
2022/07/29 12:41:46;;;;;;;3.97;1.60;;;25.60;73.00;;;;;;4998479;28;20258;-93
2022/07/29 12:44:11;;;;;;;2.60;1.45;;;25.50;71.30;;;;;;4998360;28;20637;-92
2022/07/29 12:46:37;;;;;;;3.20;1.45;;;25.60;73.80;;;;;;5034684;28;20182;-92
2022/07/29 12:49:04;;;;;;;3.15;1.45;;;25.70;71.80;;;;;;5018145;28;20178;-91
2022/07/29 12:51:36;;;;;;;3.30;1.52;;;25.70;72.00;;;;;;5017841;28;20270;-91
2022/07/29 12:54:20;;;;;;;4.05;1.50;;;25.70;71.70;;;;;;5000622;28;20174;-91
2022/07/29 12:56:45;;;;;;;5.50;1.70;;;25.80;74.50;;;;;;4979170;28;20175;-93
2022/07/29 12:59:20;;;;;;;3.25;1.40;;;25.80;72.70;;;;;;4979055;28;20669;-93
2022/07/29 13:01:48;;;;;;;3.38;1.50;;;25.90;73.00;;;;;;4996395;28;20211;-91
2022/07/29 13:04:31;;;;;;;3.97;1.70;;;26.00;72.90;;;;;;4985412;28;20215;-95
2022/07/29 13:07:06;;;;;;;4.05;1.60;;;26.10;72.10;;;;;;4978864;28;20211;-92